Time;durP1;ratioP1;P1;durP2;ratioP2;P2;SDS_P1;SDS_P2;PMS_P1;PMS_P2;Temp;Humidity;BMP_temperature;BMP_pressure;BME280_temperature;BME280_humidity;BME280_pressure;Samples;Min_cycle;Max_cycle;Signal;HPM_P1;HPM_P2
2022/01/08 00:00:38;;;;;;;0.20;0.20;;;;;;;;;;5044129;28;20292;-75
2022/01/08 00:03:05;;;;;;;0.20;0.20;;;;;;;;;;5044111;28;20258;-76
2022/01/08 00:05:31;;;;;;;0.20;0.20;;;;;;;;;;5044164;28;20208;-75
2022/01/08 00:07:57;;;;;;;0.20;0.20;;;;;;;;;;5043954;28;20251;-75
2022/01/08 00:10:23;;;;;;;0.20;0.20;;;;;;;;;;5043638;28;20566;-76
2022/01/08 00:12:51;;;;;;;0.20;0.20;;;;;;;;;;5043832;28;20550;-75
2022/01/08 00:15:19;;;;;;;0.20;0.20;;;;;;;;;;5043611;28;20231;-76
2022/01/08 00:17:45;;;;;;;0.20;0.20;;;;;;;;;;5043163;28;20205;-76
2022/01/08 00:20:12;;;;;;;0.20;0.20;;;;;;;;;;5043336;28;20276;-75
2022/01/08 00:22:38;;;;;;;0.20;0.20;;;;;;;;;;5043264;28;20240;-75
2022/01/08 00:25:05;;;;;;;0.20;0.20;;;;;;;;;;5043364;28;20204;-76
2022/01/08 00:27:31;;;;;;;0.20;0.20;;;;;;;;;;5043524;28;20254;-75
2022/01/08 00:29:58;;;;;;;0.20;0.20;;;;;;;;;;5043246;28;20209;-75
2022/01/08 00:32:26;;;;;;;0.20;0.20;;;;;;;;;;5043533;28;20200;-75
2022/01/08 00:34:52;;;;;;;2.10;2.00;;;;;;;;;;5043205;28;20233;-76
2022/01/08 00:37:18;;;;;;;0.50;0.50;;;;;;;;;;5030723;28;20252;-76
2022/01/08 00:39:47;;;;;;;0.20;0.20;;;;;;;;;;5023538;28;20205;-75
2022/01/08 00:42:14;;;;;;;0.20;0.20;;;;;;;;;;5023314;28;20507;-75
2022/01/08 00:44:40;;;;;;;0.20;0.20;;;;;;;;;;5023254;28;20452;-76
2022/01/08 00:47:07;;;;;;;0.20;0.20;;;;;;;;;;5023268;28;20207;-76
2022/01/08 00:49:35;;;;;;;0.20;0.20;;;;;;;;;;5022949;28;20197;-75
2022/01/08 00:52:01;;;;;;;0.20;0.20;;;;;;;;;;5022882;28;20229;-75
2022/01/08 00:54:27;;;;;;;0.20;0.20;;;;;;;;;;5022920;28;20229;-76
2022/01/08 00:56:53;;;;;;;0.20;0.20;;;;;;;;;;5022949;28;20205;-75
2022/01/08 00:59:20;;;;;;;0.20;0.20;;;;;;;;;;5022827;28;20256;-77
2022/01/08 01:01:46;;;;;;;0.20;0.20;;;;;;;;;;5022811;28;20225;-75
2022/01/08 01:04:12;;;;;;;0.23;0.23;;;;;;;;;;5022958;28;20252;-76
2022/01/08 01:06:40;;;;;;;0.20;0.20;;;;;;;;;;5023001;28;20252;-76
2022/01/08 01:09:06;;;;;;;0.20;0.20;;;;;;;;;;5022952;28;20476;-75
2022/01/08 01:11:32;;;;;;;0.20;0.20;;;;;;;;;;5023382;28;20206;-75
2022/01/08 01:13:58;;;;;;;0.20;0.20;;;;;;;;;;5020259;28;20220;-75
2022/01/08 01:16:25;;;;;;;0.20;0.20;;;;;;;;;;5022954;28;20224;-75
2022/01/08 01:18:52;;;;;;;0.30;0.30;;;;;;;;;;5022729;28;20205;-75
2022/01/08 01:21:18;;;;;;;0.30;0.30;;;;;;;;;;5023156;28;20395;-76
2022/01/08 01:23:47;;;;;;;0.20;0.20;;;;;;;;;;5023205;28;20555;-75
2022/01/08 01:26:18;;;;;;;0.20;0.20;;;;;;;;;;5022963;28;20275;-76
2022/01/08 01:28:49;;;;;;;0.20;0.20;;;;;;;;;;5024820;28;20284;-75
2022/01/08 01:42:38;;;;;;;0.23;0.23;;;;;;;;;;5026700;28;20223;-74
2022/01/08 01:47:48;;;;;;;0.23;0.23;;;;;;;;;;5026625;28;20539;-75
2022/01/08 01:50:15;;;;;;;0.20;0.20;;;;;;;;;;5026844;28;20338;-75
2022/01/08 01:52:41;;;;;;;0.20;0.20;;;;;;;;;;5026186;28;20221;-74
2022/01/08 01:55:09;;;;;;;0.20;0.20;;;;;;;;;;5026611;28;20208;-75
2022/01/08 01:57:35;;;;;;;0.20;0.20;;;;;;;;;;5026158;28;20256;-74
2022/01/08 02:00:01;;;;;;;0.20;0.20;;;;;;;;;;5026477;28;20212;-75
2022/01/08 02:02:28;;;;;;;0.20;0.20;;;;;;;;;;5026000;28;20233;-75
2022/01/08 02:04:54;;;;;;;0.20;0.20;;;;;;;;;;5026424;28;20259;-76
2022/01/08 02:07:23;;;;;;;0.20;0.20;;;;;;;;;;5026037;28;20248;-76
2022/01/08 02:09:50;;;;;;;0.20;0.20;;;;;;;;;;5026237;28;20205;-75
2022/01/08 02:12:20;;;;;;;0.20;0.20;;;;;;;;;;5025966;28;20202;-75
2022/01/08 02:14:46;;;;;;;0.20;0.20;;;;;;;;;;5023105;28;20213;-75
2022/01/08 02:17:12;;;;;;;0.20;0.20;;;;;;;;;;5006219;28;20206;-75
2022/01/08 02:19:40;;;;;;;0.20;0.20;;;;;;;;;;5006824;28;20532;-75
2022/01/08 02:22:10;;;;;;;0.20;0.20;;;;;;;;;;5006554;28;20293;-75
2022/01/08 02:24:36;;;;;;;0.20;0.20;;;;;;;;;;5006368;28;20244;-74
2022/01/08 02:27:02;;;;;;;0.20;0.20;;;;;;;;;;5006244;28;20252;-76
2022/01/08 02:29:29;;;;;;;0.20;0.20;;;;;;;;;;5006576;28;20213;-76
2022/01/08 02:31:56;;;;;;;0.20;0.20;;;;;;;;;;5006634;28;20221;-76
2022/01/08 02:34:22;;;;;;;0.20;0.20;;;;;;;;;;5006067;28;20206;-75
2022/01/08 02:36:51;;;;;;;0.20;0.20;;;;;;;;;;5006270;28;20439;-76
2022/01/08 02:39:19;;;;;;;0.20;0.20;;;;;;;;;;5005704;28;20205;-76
2022/01/08 02:41:45;;;;;;;0.30;0.30;;;;;;;;;;5005392;28;20225;-75
2022/01/08 02:44:11;;;;;;;0.30;0.30;;;;;;;;;;5006005;28;20433;-75
2022/01/08 02:46:38;;;;;;;0.20;0.20;;;;;;;;;;5005832;28;20206;-75
2022/01/08 02:49:05;;;;;;;0.20;0.20;;;;;;;;;;5005573;28;20206;-75
2022/01/08 02:51:33;;;;;;;0.20;0.20;;;;;;;;;;5005370;28;20234;-76
2022/01/08 02:53:59;;;;;;;0.20;0.20;;;;;;;;;;5005874;28;20485;-76
2022/01/08 02:56:27;;;;;;;0.20;0.20;;;;;;;;;;5005821;28;20232;-75
2022/01/08 02:58:53;;;;;;;0.20;0.20;;;;;;;;;;5005808;28;20397;-74
2022/01/08 03:01:20;;;;;;;0.20;0.20;;;;;;;;;;5005502;28;20393;-75
2022/01/08 03:03:46;;;;;;;0.20;0.20;;;;;;;;;;5005499;28;20563;-75
2022/01/08 03:06:12;;;;;;;0.20;0.20;;;;;;;;;;5024836;28;20232;-75
2022/01/08 03:08:38;;;;;;;0.20;0.20;;;;;;;;;;5024833;28;20420;-75
2022/01/08 03:11:05;;;;;;;0.20;0.20;;;;;;;;;;5024953;28;20205;-75
2022/01/08 03:13:32;;;;;;;0.30;0.30;;;;;;;;;;5021493;28;20214;-74
2022/01/08 03:15:59;;;;;;;0.30;0.30;;;;;;;;;;5023677;28;20263;-75
2022/01/08 03:18:25;;;;;;;0.20;0.20;;;;;;;;;;5025059;28;20252;-75
2022/01/08 03:21:01;;;;;;;0.30;0.30;;;;;;;;;;5024764;28;20240;-75
2022/01/08 03:23:36;;;;;;;0.20;0.20;;;;;;;;;;5024585;28;20263;-75
2022/01/08 03:26:02;;;;;;;0.20;0.20;;;;;;;;;;5024930;28;20488;-75
2022/01/08 03:28:28;;;;;;;0.20;0.20;;;;;;;;;;5024490;28;20512;-75
2022/01/08 03:30:56;;;;;;;0.20;0.20;;;;;;;;;;5024518;28;20209;-75
2022/01/08 03:33:22;;;;;;;0.20;0.20;;;;;;;;;;5020583;28;20432;-75
2022/01/08 03:35:48;;;;;;;0.20;0.20;;;;;;;;;;5024555;28;20209;-75
2022/01/08 03:38:14;;;;;;;0.20;0.20;;;;;;;;;;5024798;28;20206;-75
2022/01/08 03:40:41;;;;;;;0.20;0.20;;;;;;;;;;5024519;28;20209;-75
2022/01/08 03:43:07;;;;;;;0.20;0.20;;;;;;;;;;5024574;28;20287;-75
2022/01/08 03:45:33;;;;;;;0.20;0.20;;;;;;;;;;5024483;28;20570;-76
2022/01/08 03:48:18;;;;;;;0.20;0.20;;;;;;;;;;5024248;28;20202;-75
2022/01/08 03:50:45;;;;;;;0.20;0.20;;;;;;;;;;5010219;28;20220;-75
2022/01/08 03:53:11;;;;;;;0.20;0.20;;;;;;;;;;5004257;28;20222;-75
2022/01/08 03:55:37;;;;;;;0.20;0.20;;;;;;;;;;5004687;28;20276;-75
2022/01/08 03:58:04;;;;;;;0.23;0.23;;;;;;;;;;5004518;28;20252;-75
2022/01/08 04:00:30;;;;;;;0.20;0.20;;;;;;;;;;5004879;28;20212;-76
2022/01/08 04:02:56;;;;;;;0.20;0.20;;;;;;;;;;5004891;28;20230;-75
2022/01/08 04:05:24;;;;;;;0.20;0.20;;;;;;;;;;5004393;28;20250;-75
2022/01/08 04:07:50;;;;;;;0.20;0.20;;;;;;;;;;5004599;28;20350;-75
2022/01/08 04:10:16;;;;;;;0.20;0.20;;;;;;;;;;5018199;28;20436;-74
2022/01/08 04:12:46;;;;;;;0.20;0.20;;;;;;;;;;5006414;28;20293;-75
2022/01/08 04:15:33;;;;;;;0.20;0.20;;;;;;;;;;5004628;28;20209;-75
2022/01/08 04:17:59;;;;;;;0.20;0.20;;;;;;;;;;5004106;28;20213;-74
2022/01/08 04:20:26;;;;;;;0.20;0.20;;;;;;;;;;5004351;28;20304;-75
2022/01/08 04:22:53;;;;;;;0.20;0.20;;;;;;;;;;5003952;28;20222;-76
2022/01/08 04:25:20;;;;;;;0.20;0.20;;;;;;;;;;5018388;28;20297;-75
2022/01/08 04:27:46;;;;;;;0.20;0.20;;;;;;;;;;5021073;28;20248;-75
2022/01/08 04:30:13;;;;;;;0.20;0.20;;;;;;;;;;5005324;28;20213;-75
2022/01/08 04:32:40;;;;;;;0.20;0.20;;;;;;;;;;5004036;28;20241;-75
2022/01/08 04:35:07;;;;;;;0.20;0.20;;;;;;;;;;5003870;28;20205;-76
2022/01/08 04:37:34;;;;;;;0.20;0.20;;;;;;;;;;5003890;28;20241;-75
2022/01/08 04:40:01;;;;;;;0.20;0.20;;;;;;;;;;5004063;28;20206;-75
2022/01/08 04:42:27;;;;;;;0.20;0.20;;;;;;;;;;5003549;28;20233;-76
2022/01/08 04:44:54;;;;;;;0.20;0.20;;;;;;;;;;5004026;28;20362;-75
2022/01/08 04:47:20;;;;;;;0.20;0.20;;;;;;;;;;5004484;28;20506;-76
2022/01/08 04:49:47;;;;;;;0.20;0.20;;;;;;;;;;5004102;28;20206;-75
2022/01/08 04:52:13;;;;;;;0.20;0.20;;;;;;;;;;5003724;28;20623;-76
2022/01/08 04:54:41;;;;;;;0.20;0.20;;;;;;;;;;5003888;28;20418;-75
2022/01/08 04:57:07;;;;;;;0.20;0.20;;;;;;;;;;5003477;28;20314;-75
2022/01/08 04:59:33;;;;;;;0.20;0.20;;;;;;;;;;5003663;28;20206;-75
2022/01/08 05:01:59;;;;;;;0.20;0.20;;;;;;;;;;5003478;28;20217;-75
2022/01/08 05:04:26;;;;;;;0.20;0.20;;;;;;;;;;5002750;28;20237;-75
2022/01/08 05:06:53;;;;;;;0.20;0.20;;;;;;;;;;5003812;28;20206;-75
2022/01/08 05:09:19;;;;;;;0.20;0.20;;;;;;;;;;5003601;28;20403;-76
2022/01/08 05:11:48;;;;;;;0.20;0.20;;;;;;;;;;5003292;28;20246;-75
2022/01/08 05:14:14;;;;;;;0.20;0.20;;;;;;;;;;5003311;28;20305;-76
2022/01/08 05:16:42;;;;;;;0.20;0.20;;;;;;;;;;5003260;28;20256;-75
2022/01/08 05:19:08;;;;;;;0.20;0.20;;;;;;;;;;5003569;28;20277;-74
2022/01/08 05:21:38;;;;;;;0.20;0.20;;;;;;;;;;5003488;28;20249;-76
2022/01/08 05:24:04;;;;;;;0.20;0.20;;;;;;;;;;5011932;28;20224;-75
2022/01/08 05:26:30;;;;;;;0.20;0.20;;;;;;;;;;5023148;28;20210;-75
2022/01/08 05:28:58;;;;;;;0.20;0.20;;;;;;;;;;5023203;28;20399;-76
2022/01/08 05:31:24;;;;;;;0.20;0.20;;;;;;;;;;5023002;28;20202;-76
2022/01/08 05:33:51;;;;;;;0.20;0.20;;;;;;;;;;5023068;28;20209;-75
2022/01/08 05:36:17;;;;;;;0.20;0.20;;;;;;;;;;5022898;28;20205;-74
2022/01/08 05:38:43;;;;;;;0.20;0.20;;;;;;;;;;5022750;28;20228;-75
2022/01/08 05:41:10;;;;;;;0.20;0.20;;;;;;;;;;5023124;28;20205;-74
2022/01/08 05:43:36;;;;;;;0.20;0.20;;;;;;;;;;5022589;28;20540;-74
2022/01/08 05:46:04;;;;;;;0.20;0.20;;;;;;;;;;5022675;28;20252;-75
2022/01/08 05:48:30;;;;;;;0.20;0.20;;;;;;;;;;5022862;28;20214;-75
2022/01/08 05:50:56;;;;;;;0.20;0.20;;;;;;;;;;5022761;28;20259;-74
2022/01/08 05:53:22;;;;;;;0.20;0.20;;;;;;;;;;5022603;28;20201;-75
2022/01/08 05:55:49;;;;;;;0.20;0.20;;;;;;;;;;5022889;28;20512;-75
2022/01/08 05:58:16;;;;;;;0.20;0.20;;;;;;;;;;5022865;28;20210;-75
2022/01/08 06:00:42;;;;;;;0.20;0.20;;;;;;;;;;5022813;28;20209;-75
2022/01/08 06:03:10;;;;;;;0.20;0.20;;;;;;;;;;5022791;28;20229;-75
2022/01/08 06:05:36;;;;;;;0.20;0.20;;;;;;;;;;5022557;28;20276;-75
2022/01/08 06:08:02;;;;;;;0.20;0.20;;;;;;;;;;5022720;28;20205;-75
2022/01/08 06:10:28;;;;;;;0.20;0.20;;;;;;;;;;5022686;28;20213;-75
2022/01/08 06:12:55;;;;;;;0.20;0.20;;;;;;;;;;5022765;28;20389;-75
2022/01/08 06:15:21;;;;;;;0.20;0.20;;;;;;;;;;5023719;28;20209;-75
2022/01/08 06:17:47;;;;;;;0.20;0.20;;;;;;;;;;5025031;28;20550;-75
2022/01/08 06:20:15;;;;;;;0.20;0.20;;;;;;;;;;5026123;28;20261;-73
2022/01/08 06:22:41;;;;;;;0.20;0.20;;;;;;;;;;5026338;28;20571;-75
2022/01/08 06:25:08;;;;;;;0.20;0.20;;;;;;;;;;5026123;28;20237;-75
2022/01/08 06:27:34;;;;;;;0.20;0.20;;;;;;;;;;5026168;28;20212;-74
2022/01/08 06:30:02;;;;;;;0.20;0.20;;;;;;;;;;5025718;28;20211;-75
2022/01/08 06:32:28;;;;;;;0.20;0.20;;;;;;;;;;5026044;28;20205;-75
2022/01/08 06:34:54;;;;;;;0.20;0.20;;;;;;;;;;5025859;28;20205;-75
2022/01/08 06:37:22;;;;;;;0.30;0.30;;;;;;;;;;5025753;28;20205;-75
2022/01/08 06:39:50;;;;;;;0.20;0.20;;;;;;;;;;5025751;28;20206;-75
2022/01/08 06:42:17;;;;;;;0.20;0.20;;;;;;;;;;5025547;28;20272;-74
2022/01/08 06:44:43;;;;;;;0.20;0.20;;;;;;;;;;5025789;28;20229;-75
2022/01/08 06:47:09;;;;;;;0.20;0.20;;;;;;;;;;5025755;28;20205;-75
2022/01/08 06:49:35;;;;;;;0.20;0.20;;;;;;;;;;5035891;28;20247;-75
2022/01/08 06:52:02;;;;;;;0.20;0.20;;;;;;;;;;5044960;28;20235;-75
2022/01/08 06:54:29;;;;;;;0.20;0.20;;;;;;;;;;5045416;28;20202;-75
2022/01/08 06:56:55;;;;;;;0.27;0.27;;;;;;;;;;5045343;28;20219;-75
2022/01/08 06:59:22;;;;;;;0.20;0.20;;;;;;;;;;5045392;28;20522;-75
2022/01/08 07:01:48;;;;;;;0.20;0.20;;;;;;;;;;5045001;28;20202;-75
2022/01/08 07:04:14;;;;;;;0.20;0.20;;;;;;;;;;5044957;28;20225;-74
2022/01/08 07:06:40;;;;;;;0.10;0.10;;;;;;;;;;5045066;28;20422;-75
2022/01/08 07:09:06;;;;;;;0.20;0.20;;;;;;;;;;5045103;28;20443;-75
2022/01/08 07:11:34;;;;;;;0.20;0.20;;;;;;;;;;5045015;28;20205;-75
2022/01/08 07:14:01;;;;;;;6.10;5.70;;;;;;;;;;5033240;28;20229;-74
2022/01/08 07:16:28;;;;;;;0.20;0.20;;;;;;;;;;5013170;28;20437;-75
2022/01/08 07:18:54;;;;;;;0.20;0.20;;;;;;;;;;5005610;28;20206;-75
2022/01/08 07:21:20;;;;;;;0.20;0.20;;;;;;;;;;5005402;28;20372;-76
2022/01/08 07:23:46;;;;;;;0.20;0.20;;;;;;;;;;5004661;28;20230;-76
2022/01/08 07:26:12;;;;;;;0.20;0.20;;;;;;;;;;5005136;28;20209;-76
2022/01/08 07:28:40;;;;;;;0.20;0.20;;;;;;;;;;5005370;28;20428;-76
2022/01/08 07:31:06;;;;;;;0.20;0.20;;;;;;;;;;5005079;28;20282;-76
2022/01/08 07:33:33;;;;;;;0.20;0.20;;;;;;;;;;5004869;28;20242;-75
2022/01/08 07:35:59;;;;;;;0.20;0.20;;;;;;;;;;5005288;28;20314;-75
2022/01/08 07:38:25;;;;;;;0.20;0.20;;;;;;;;;;5004865;28;20245;-77
2022/01/08 07:40:52;;;;;;;0.20;0.20;;;;;;;;;;5005177;28;20205;-75
2022/01/08 07:43:18;;;;;;;0.20;0.20;;;;;;;;;;5004860;28;20213;-75
2022/01/08 07:45:46;;;;;;;0.20;0.20;;;;;;;;;;5005102;28;20206;-73
2022/01/08 07:48:12;;;;;;;0.20;0.20;;;;;;;;;;5005208;28;20257;-75
2022/01/08 07:50:39;;;;;;;0.20;0.20;;;;;;;;;;5005013;28;20217;-74
2022/01/08 07:53:05;;;;;;;0.20;0.20;;;;;;;;;;5005090;28;20341;-75
2022/01/08 07:55:33;;;;;;;0.20;0.20;;;;;;;;;;5004969;28;20263;-76
2022/01/08 07:57:59;;;;;;;0.20;0.20;;;;;;;;;;5004919;28;20252;-75
2022/01/08 08:00:26;;;;;;;0.20;0.20;;;;;;;;;;5004946;28;20376;-75
2022/01/08 08:02:53;;;;;;;0.20;0.20;;;;;;;;;;5004558;28;20267;-75
2022/01/08 08:05:20;;;;;;;0.20;0.20;;;;;;;;;;5004606;28;20292;-75
2022/01/08 08:07:46;;;;;;;0.20;0.20;;;;;;;;;;5004355;28;20234;-75
2022/01/08 08:10:13;;;;;;;0.20;0.20;;;;;;;;;;5021168;28;20206;-75
2022/01/08 08:12:40;;;;;;;0.20;0.20;;;;;;;;;;5023640;28;20208;-75
2022/01/08 08:15:07;;;;;;;0.20;0.20;;;;;;;;;;5023856;28;20197;-76
2022/01/08 08:17:34;;;;;;;0.20;0.20;;;;;;;;;;5023770;28;20202;-76
2022/01/08 08:20:01;;;;;;;0.20;0.20;;;;;;;;;;5023906;28;20225;-76
2022/01/08 08:22:28;;;;;;;0.20;0.20;;;;;;;;;;5023904;28;20224;-76
2022/01/08 08:24:54;;;;;;;0.20;0.20;;;;;;;;;;5023638;28;20241;-74
2022/01/08 08:27:20;;;;;;;0.20;0.20;;;;;;;;;;5023416;28;20401;-75
2022/01/08 08:29:46;;;;;;;0.20;0.20;;;;;;;;;;5023177;28;20197;-75
2022/01/08 08:32:13;;;;;;;0.20;0.20;;;;;;;;;;5021143;28;20233;-74
2022/01/08 08:34:39;;;;;;;0.20;0.20;;;;;;;;;;5008451;28;20202;-75
2022/01/08 08:37:07;;;;;;;0.20;0.20;;;;;;;;;;5013709;28;20253;-73
2022/01/08 08:39:33;;;;;;;0.20;0.20;;;;;;;;;;5012587;28;20219;-74
2022/01/08 08:41:59;;;;;;;0.20;0.20;;;;;;;;;;5003763;28;20264;-74
2022/01/08 08:44:25;;;;;;;0.20;0.20;;;;;;;;;;5009269;28;20568;-75
2022/01/08 08:46:52;;;;;;;0.20;0.20;;;;;;;;;;5010109;28;20210;-75
2022/01/08 08:49:18;;;;;;;0.20;0.20;;;;;;;;;;5009451;28;20210;-75
2022/01/08 08:51:44;;;;;;;0.20;0.20;;;;;;;;;;5020994;28;20252;-75
2022/01/08 08:54:15;;;;;;;0.20;0.20;;;;;;;;;;5023244;28;20485;-75
2022/01/08 08:56:42;;;;;;;0.20;0.20;;;;;;;;;;5023648;28;20418;-75
2022/01/08 08:59:08;;;;;;;0.20;0.20;;;;;;;;;;5023519;28;20428;-77
2022/01/08 09:01:35;;;;;;;0.20;0.20;;;;;;;;;;5023274;28;20205;-75
2022/01/08 09:04:01;;;;;;;0.20;0.20;;;;;;;;;;5023387;28;20434;-76
2022/01/08 09:06:27;;;;;;;0.20;0.20;;;;;;;;;;5023458;28;20207;-76
2022/01/08 09:08:53;;;;;;;0.20;0.20;;;;;;;;;;5008911;28;20241;-76
2022/01/08 09:11:21;;;;;;;0.20;0.20;;;;;;;;;;5003710;28;20213;-76
2022/01/08 09:13:47;;;;;;;0.20;0.20;;;;;;;;;;5008307;28;20209;-76
2022/01/08 09:16:13;;;;;;;0.20;0.20;;;;;;;;;;5009528;28;20289;-76
2022/01/08 09:18:41;;;;;;;0.20;0.20;;;;;;;;;;5016874;28;20205;-75
2022/01/08 09:21:09;;;;;;;0.20;0.20;;;;;;;;;;5008730;28;20210;-75
2022/01/08 09:23:35;;;;;;;0.10;0.10;;;;;;;;;;5018987;28;20205;-74
2022/01/08 09:26:02;;;;;;;0.20;0.20;;;;;;;;;;5006152;28;20232;-75
2022/01/08 09:28:30;;;;;;;0.20;0.20;;;;;;;;;;5008460;28;20225;-75
2022/01/08 09:30:56;;;;;;;0.20;0.20;;;;;;;;;;5011043;28;20269;-76
2022/01/08 09:33:23;;;;;;;0.20;0.20;;;;;;;;;;5010132;28;20202;-76
2022/01/08 09:35:50;;;;;;;0.20;0.20;;;;;;;;;;5014741;28;20226;-76
2022/01/08 09:38:16;;;;;;;0.20;0.20;;;;;;;;;;5004148;28;20214;-74
2022/01/08 09:40:42;;;;;;;0.20;0.20;;;;;;;;;;5012998;28;20272;-76
2022/01/08 09:43:08;;;;;;;0.20;0.20;;;;;;;;;;5006982;28;20206;-75
2022/01/08 09:45:36;;;;;;;0.20;0.20;;;;;;;;;;5003101;28;20277;-76
2022/01/08 09:48:05;;;;;;;0.20;0.20;;;;;;;;;;5011557;28;20220;-76
2022/01/08 09:50:31;;;;;;;0.20;0.20;;;;;;;;;;5018371;28;20203;-76
2022/01/08 09:52:58;;;;;;;0.20;0.20;;;;;;;;;;5020810;28;20236;-76
2022/01/08 09:55:26;;;;;;;0.20;0.20;;;;;;;;;;5006690;28;20206;-77
2022/01/08 09:57:53;;;;;;;0.20;0.20;;;;;;;;;;5014433;28;20203;-77
2022/01/08 10:00:20;;;;;;;0.20;0.20;;;;;;;;;;5009033;28;20453;-77
2022/01/08 10:02:47;;;;;;;0.97;0.97;;;;;;;;;;5011902;28;20435;-75
2022/01/08 10:05:15;;;;;;;0.20;0.20;;;;;;;;;;5014960;28;20227;-78
2022/01/08 10:07:42;;;;;;;0.20;0.20;;;;;;;;;;5015255;28;20294;-77
2022/01/08 10:10:12;;;;;;;0.20;0.20;;;;;;;;;;5009908;28;20328;-74
2022/01/08 10:12:40;;;;;;;0.20;0.20;;;;;;;;;;5013558;28;20210;-73
2022/01/08 10:17:53;;;;;;;0.20;0.20;;;;;;;;;;5011497;28;20210;-77
2022/01/08 10:20:29;;;;;;;0.13;0.13;;;;;;;;;;5026209;28;20263;-75
2022/01/08 10:23:00;;;;;;;0.87;0.87;;;;;;;;;;5016162;28;20212;-74
2022/01/08 10:25:26;;;;;;;0.20;0.20;;;;;;;;;;5011524;28;20504;-81
2022/01/08 10:27:52;;;;;;;0.20;0.20;;;;;;;;;;5016925;28;20394;-80
2022/01/08 10:30:24;;;;;;;0.20;0.20;;;;;;;;;;5006441;28;20211;-73
2022/01/08 10:32:57;;;;;;;0.20;0.20;;;;;;;;;;5015466;28;20271;-74
2022/01/08 10:35:38;;;;;;;0.20;0.20;;;;;;;;;;5018259;28;20229;-76
2022/01/08 10:38:04;;;;;;;0.10;0.10;;;;;;;;;;5015924;28;20209;-72
2022/01/08 10:40:33;;;;;;;0.20;0.20;;;;;;;;;;5025524;28;20242;-73
2022/01/08 10:43:00;;;;;;;0.20;0.20;;;;;;;;;;5016227;28;20211;-72
2022/01/08 10:45:27;;;;;;;0.10;0.10;;;;;;;;;;5010646;28;20221;-73
2022/01/08 10:48:04;;;;;;;0.20;0.20;;;;;;;;;;5005774;28;20239;-70
2022/01/08 10:50:30;;;;;;;0.20;0.20;;;;;;;;;;5022925;28;20204;-74
2022/01/08 10:52:57;;;;;;;0.20;0.20;;;;;;;;;;5005907;28;20228;-74
2022/01/08 10:55:29;;;;;;;0.20;0.20;;;;;;;;;;5006069;28;20511;-76
2022/01/08 10:57:56;;;;;;;0.20;0.20;;;;;;;;;;5021497;28;20211;-73
2022/01/08 11:00:29;;;;;;;0.20;0.20;;;;;;;;;;5016827;28;20271;-75
2022/01/08 11:02:55;;;;;;;0.20;0.20;;;;;;;;;;5022461;28;20212;-78
2022/01/08 11:05:23;;;;;;;0.13;0.13;;;;;;;;;;5016477;28;20251;-75
2022/01/08 11:07:49;;;;;;;0.13;0.13;;;;;;;;;;5011156;28;20494;-74
2022/01/08 11:10:18;;;;;;;0.10;0.10;;;;;;;;;;5005624;28;20489;-75
2022/01/08 11:12:46;;;;;;;0.20;0.20;;;;;;;;;;5005715;28;20353;-75
2022/01/08 11:15:25;;;;;;;0.20;0.20;;;;;;;;;;5005296;28;20205;-74
2022/01/08 11:17:52;;;;;;;0.10;0.10;;;;;;;;;;5008303;28;20552;-74
2022/01/08 11:20:19;;;;;;;0.10;0.10;;;;;;;;;;5024931;28;20232;-78
2022/01/08 11:22:47;;;;;;;0.10;0.10;;;;;;;;;;5023405;28;20200;-75
2022/01/08 11:25:14;;;;;;;0.10;0.10;;;;;;;;;;5016888;28;20287;-73
2022/01/08 11:27:51;;;;;;;0.10;0.10;;;;;;;;;;5009896;28;20257;-75
2022/01/08 11:30:20;;;;;;;0.10;0.10;;;;;;;;;;5007800;28;20259;-77
2022/01/08 11:32:47;;;;;;;0.10;0.10;;;;;;;;;;5013004;28;20225;-73
2022/01/08 11:35:14;;;;;;;0.10;0.10;;;;;;;;;;5011941;28;20422;-74
2022/01/08 11:37:45;;;;;;;0.10;0.10;;;;;;;;;;5014466;28;20205;-76
2022/01/08 11:40:14;;;;;;;0.20;0.20;;;;;;;;;;5008996;28;20213;-73
2022/01/08 11:42:40;;;;;;;0.20;0.20;;;;;;;;;;5011775;28;20209;-77
2022/01/08 11:45:08;;;;;;;0.10;0.10;;;;;;;;;;5008389;28;20243;-74
2022/01/08 11:47:34;;;;;;;0.20;0.20;;;;;;;;;;5019184;28;20204;-78
2022/01/08 11:50:02;;;;;;;0.10;0.10;;;;;;;;;;5012918;28;20204;-71
2022/01/08 11:52:28;;;;;;;0.13;0.13;;;;;;;;;;5008990;28;20231;-76
2022/01/08 11:54:55;;;;;;;0.17;0.17;;;;;;;;;;5023590;28;20424;-79
2022/01/08 11:57:23;;;;;;;0.10;0.10;;;;;;;;;;5013222;28;20273;-77
2022/01/08 11:59:56;;;;;;;0.20;0.20;;;;;;;;;;5004594;28;20208;-76
2022/01/08 12:02:22;;;;;;;0.10;0.10;;;;;;;;;;5011820;28;20216;-74
2022/01/08 12:04:52;;;;;;;0.20;0.20;;;;;;;;;;5004115;28;20204;-74
2022/01/08 12:07:26;;;;;;;0.10;0.10;;;;;;;;;;5004451;28;20504;-78
2022/01/08 12:10:01;;;;;;;0.20;0.20;;;;;;;;;;5021619;28;20260;-76
2022/01/08 12:12:43;;;;;;;0.20;0.20;;;;;;;;;;5041359;28;20225;-76
2022/01/08 12:15:09;;;;;;;0.20;0.20;;;;;;;;;;5032343;28;20266;-79
2022/01/08 12:17:51;;;;;;;0.20;0.20;;;;;;;;;;5015386;28;20217;-79
2022/01/08 12:20:38;;;;;;;0.20;0.20;;;;;;;;;;5028376;28;20199;-79
2022/01/08 12:23:19;;;;;;;0.20;0.20;;;;;;;;;;5035920;28;20253;-79
2022/01/08 12:25:45;;;;;;;0.20;0.20;;;;;;;;;;5043585;28;20450;-75
2022/01/08 12:28:37;;;;;;;0.20;0.20;;;;;;;;;;5043458;28;20248;-78
2022/01/08 12:31:18;;;;;;;0.23;0.23;;;;;;;;;;5044513;28;20251;-79
2022/01/08 12:33:44;;;;;;;0.20;0.20;;;;;;;;;;5043067;28;20213;-76
2022/01/08 12:36:24;;;;;;;0.20;0.20;;;;;;;;;;5043283;28;20248;-75
2022/01/08 12:39:01;;;;;;;0.20;0.20;;;;;;;;;;5032968;28;20207;-77
2022/01/08 12:41:27;;;;;;;0.20;0.20;;;;;;;;;;5003983;28;20311;-79
2022/01/08 12:43:54;;;;;;;0.20;0.20;;;;;;;;;;5022719;28;20261;-74
2022/01/08 12:46:22;;;;;;;0.20;0.20;;;;;;;;;;5023415;28;20454;-78
2022/01/08 12:49:08;;;;;;;0.20;0.20;;;;;;;;;;5014486;28;20207;-79
2022/01/08 12:51:41;;;;;;;0.20;0.20;;;;;;;;;;5009578;28;20327;-79
2022/01/08 12:54:07;;;;;;;0.20;0.20;;;;;;;;;;5006070;28;20205;-79
2022/01/08 12:56:33;;;;;;;0.20;0.20;;;;;;;;;;5006766;28;20495;-79
2022/01/08 12:59:03;;;;;;;0.20;0.20;;;;;;;;;;5003476;28;20275;-78
2022/01/08 13:01:30;;;;;;;0.20;0.20;;;;;;;;;;5005950;28;20203;-82
2022/01/08 13:03:57;;;;;;;0.20;0.20;;;;;;;;;;5009092;28;20421;-82
2022/01/08 13:06:31;;;;;;;0.10;0.10;;;;;;;;;;5003802;28;20302;-79
2022/01/08 13:08:58;;;;;;;0.20;0.20;;;;;;;;;;5011325;28;20435;-78
2022/01/08 13:11:25;;;;;;;0.20;0.20;;;;;;;;;;5016879;28;20207;-78
2022/01/08 13:13:53;;;;;;;0.20;0.20;;;;;;;;;;5007211;28;20241;-88
2022/01/08 13:16:25;;;;;;;0.13;0.13;;;;;;;;;;5021222;28;20514;-80
2022/01/08 13:18:52;;;;;;;0.20;0.20;;;;;;;;;;5003456;28;20207;-76
2022/01/08 13:21:19;;;;;;;0.20;0.20;;;;;;;;;;5014707;28;20206;-77
2022/01/08 13:23:47;;;;;;;0.20;0.20;;;;;;;;;;5009104;28;20204;-77
2022/01/08 13:26:13;;;;;;;0.10;0.10;;;;;;;;;;5015235;28;20235;-76
2022/01/08 13:28:41;;;;;;;0.20;0.20;;;;;;;;;;5017980;28;20400;-77
2022/01/08 13:31:07;;;;;;;0.20;0.20;;;;;;;;;;5017873;28;20211;-80
2022/01/08 13:33:35;;;;;;;0.20;0.20;;;;;;;;;;5018088;28;20389;-75
2022/01/08 13:36:02;;;;;;;0.20;0.20;;;;;;;;;;5020410;28;20510;-80
2022/01/08 13:38:29;;;;;;;0.20;0.20;;;;;;;;;;5017032;28;20203;-77
2022/01/08 13:40:55;;;;;;;0.20;0.20;;;;;;;;;;5012834;28;20287;-76
2022/01/08 13:43:21;;;;;;;0.13;0.13;;;;;;;;;;5016735;28;20206;-78
2022/01/08 13:45:52;;;;;;;0.20;0.20;;;;;;;;;;5017188;28;20396;-80
2022/01/08 13:48:19;;;;;;;0.20;0.20;;;;;;;;;;5011446;28;20244;-79
2022/01/08 13:50:53;;;;;;;0.20;0.20;;;;;;;;;;5020519;28;20234;-78
2022/01/08 13:53:20;;;;;;;0.10;0.10;;;;;;;;;;5017310;28;20439;-80
2022/01/08 13:55:47;;;;;;;0.20;0.20;;;;;;;;;;5013551;28;20206;-79
2022/01/08 13:58:14;;;;;;;0.17;0.17;;;;;;;;;;5022074;28;20228;-78
2022/01/08 14:00:42;;;;;;;0.20;0.20;;;;;;;;;;5023794;28;20225;-75
2022/01/08 14:03:17;;;;;;;0.20;0.20;;;;;;;;;;5017653;28;20207;-75
2022/01/08 14:05:43;;;;;;;0.20;0.20;;;;;;;;;;5011169;28;20257;-74
2022/01/08 14:08:11;;;;;;;0.20;0.20;;;;;;;;;;5016323;28;20250;-76
2022/01/08 14:10:38;;;;;;;0.20;0.20;;;;;;;;;;5011751;28;20410;-74
2022/01/08 14:13:06;;;;;;;0.20;0.20;;;;;;;;;;5017330;28;20214;-74
2022/01/08 14:15:32;;;;;;;0.20;0.20;;;;;;;;;;5017159;28;20208;-74
2022/01/08 14:18:07;;;;;;;0.20;0.20;;;;;;;;;;5015293;28;20385;-75
2022/01/08 14:20:33;;;;;;;0.20;0.20;;;;;;;;;;5022108;28;20272;-75
2022/01/08 14:23:09;;;;;;;0.20;0.20;;;;;;;;;;5019595;28;20255;-75
2022/01/08 14:25:37;;;;;;;0.23;0.23;;;;;;;;;;5020176;28;20261;-76
2022/01/08 14:28:13;;;;;;;0.20;0.20;;;;;;;;;;5017428;28;20212;-76
2022/01/08 14:30:40;;;;;;;0.20;0.20;;;;;;;;;;5011875;28;20202;-74
2022/01/08 14:33:06;;;;;;;0.20;0.20;;;;;;;;;;5017114;28;20226;-72
2022/01/08 14:35:32;;;;;;;0.20;0.20;;;;;;;;;;5012492;28;20264;-75
2022/01/08 14:38:01;;;;;;;0.20;0.20;;;;;;;;;;5010768;28;20211;-76
2022/01/08 14:40:29;;;;;;;0.17;0.17;;;;;;;;;;5010312;28;20215;-75
2022/01/08 14:42:57;;;;;;;0.20;0.20;;;;;;;;;;5024459;28;20271;-72
2022/01/08 14:45:24;;;;;;;0.20;0.20;;;;;;;;;;5017617;28;20206;-73
2022/01/08 14:47:51;;;;;;;0.20;0.20;;;;;;;;;;5013826;28;20499;-70
2022/01/08 14:50:20;;;;;;;0.20;0.20;;;;;;;;;;5019411;28;20210;-72
2022/01/08 14:52:49;;;;;;;0.20;0.20;;;;;;;;;;5014984;28;20248;-77
2022/01/08 14:55:16;;;;;;;0.20;0.20;;;;;;;;;;5023390;28;20206;-77
2022/01/08 14:57:43;;;;;;;0.20;0.20;;;;;;;;;;5017604;28;20262;-79
2022/01/08 15:00:12;;;;;;;0.20;0.20;;;;;;;;;;5013030;28;20209;-75
2022/01/08 15:02:38;;;;;;;0.10;0.10;;;;;;;;;;5018587;28;20256;-75